EST,Max TemperatureF,Mean TemperatureF,Min TemperatureF,Max Dew PointF,MeanDew PointF,Min DewpointF,Max Humidity, Mean Humidity, Min Humidity, Max Sea Level PressureIn, Mean Sea Level PressureIn, Min Sea Level PressureIn, Max VisibilityMiles, Mean VisibilityMiles, Min VisibilityMiles, Max Wind SpeedMPH, Mean Wind SpeedMPH, Max Gust SpeedMPH,PrecipitationIn, CloudCover, Events, WindDirDegrees
2013-1-1,25,14,2,19,9,-8,92,73,53,29.68,29.54,29.43,10,7,1,20,9,28,T,5,Snow,258
2013-1-2,7,2,-4,-8,-10,-13,69,59,49,29.93,29.76,29.68,10,10,8,22,13,30,0.00,0,,290
2013-1-3,10,2,-6,-4,-8,-12,79,67,55,29.99,29.93,29.86,10,10,10,15,6,24,0.00,3,,314
2013-1-4,27,8,-11,20,7,-14,83,75,67,29.87,29.68,29.55,10,8,2,17,6,24,T,7,Snow,207
2013-1-5,27,9,-9,21,10,-14,81,64,47,30.23,29.84,29.56,10,6,0,24,8,36,T,5,Snow,320
2013-1-6,18,5,-9,11,4,-12,83,75,66,30.21,30.02,29.93,10,6,2,10,4,14,T,6,Snow,355
2013-1-7,10,-3,-16,3,-10,-22,78,64,40,30.39,30.27,30.04,10,10,9,13,8,18,0.00,2,,353
2013-1-8,32,12,-8,22,8,-11,86,72,58,30.29,30.19,30.12,10,10,9,12,6,15,0.00,5,,215
2013-1-9,35,19,2,30,23,2,96,76,56,30.38,30.01,29.68,10,6,1,14,5,21,0.08,4,Snow,195
2013-1-10,38,30,22,30,24,13,85,70,54,30.44,30.02,29.68,10,10,7,23,11,35,T,6,,309
2013-1-11,29,17,4,15,11,3,92,69,46,30.49,30.40,30.27,10,10,10,16,2,23,0.00,2,,23
2013-1-12,36,32,27,33,22,12,92,71,50,30.27,30.15,30.05,10,10,4,9,4,16,0.00,8,,177
2013-1-13,40,38,35,38,35,33,100,96,92,30.11,30.00,29.86,10,3,0,14,6,22,0.00,8,Fog,198
2013-1-14,51,41,31,43,36,17,100,71,42,30.14,29.85,29.76,10,5,0,25,9,36,0.00,6,Fog,225
2013-1-15,31,21,11,17,9,6,76,58,39,30.29,30.23,30.18,10,10,10,14,6,20,0.00,1,,344
2013-1-16,31,22,13,28,19,7,88,74,60,30.22,29.95,29.71,10,6,1,14,5,18,0.05,6,Snow,173
2013-1-17,34,15,-4,29,15,-20,92,63,34,30.14,29.79,29.62,10,6,1,26,10,37,0.05,5,Snow,258
2013-1-18,6,-5,-16,-12,-17,-23,77,56,34,30.29,30.22,30.15,10,10,10,15,6,22,0.00,0,,267
2013-1-19,23,11,-1,18,8,-12,84,69,54,30.28,30.04,29.90,10,6,1,16,5,21,0.02,7,Snow,197
2013-1-20,37,23,9,32,18,-3,92,67,42,29.93,29.61,29.31,10,5,0,31,12,43,0.13,6,Snow,165
2013-1-21,9,3,-3,-5,-10,-13,72,59,45,29.98,29.89,29.70,10,10,10,22,8,29,0.00,1,,264
2013-1-22,3,-8,-19,-10,-15,-24,81,65,49,29.90,29.86,29.80,10,10,10,14,4,18,0.00,3,,357
2013-1-23,-2,-7,-12,-14,-20,-24,64,53,41,29.93,29.87,29.83,10,10,10,21,10,28,0.00,1,,268
2013-1-24,3,-4,-11,-16,-19,-23,59,50,41,29.93,29.83,29.76,10,10,10,20,11,28,0.00,1,,284
2013-1-25,11,3,-6,-6,-11,-16,62,54,46,30.06,30.01,29.93,10,10,10,21,9,32,0.00,0,,296
2013-1-26,13,2,-10,-4,-8,-15,71,59,46,30.04,29.97,29.91,10,10,10,18,8,26,0.00,2,,317
2013-1-27,18,11,3,2,-3,-8,66,57,47,30.31,30.15,30.00,10,10,10,22,10,29,0.00,4,,314
2013-1-28,23,6,-12,-2,-8,-15,79,52,24,30.35,30.23,30.09,10,10,10,8,2,14,0.00,0,,262
2013-1-29,28,11,-7,10,2,-11,78,60,42,30.19,30.14,30.06,10,10,9,10,2,15,0.00,3,,74
2013-1-30,50,37,23,48,37,10,93,74,55,30.12,29.64,29.35,10,4,1,18,10,30,0.22,8,Rain,189
2013-1-31,54,39,23,52,43,6,96,73,50,29.33,28.99,28.64,10,5,1,33,15,43,0.91,8,Rain,202